createdAt,value
2023-10-29T00:00:27.743Z,247.98
2023-10-29T00:02:56.489Z,254.75
2023-10-29T00:05:24.921Z,254.35
2023-10-29T00:07:53.431Z,249.32
2023-10-29T00:10:22.164Z,250.60
2023-10-29T00:12:50.490Z,253.15
2023-10-29T00:15:19.031Z,249.25
2023-10-29T00:17:47.608Z,248.27
2023-10-29T00:20:16.977Z,251.35
2023-10-29T00:22:45.681Z,243.52
2023-10-29T00:25:14.082Z,248.82
2023-10-29T00:27:42.929Z,252.38
2023-10-29T00:30:11.587Z,254.20
2023-10-29T00:32:40.176Z,249.07
2023-10-29T00:35:09.636Z,254.00
2023-10-29T00:37:38.349Z,255.70
2023-10-29T00:40:07.093Z,254.90
2023-10-29T00:42:36.523Z,253.85
2023-10-29T00:45:05.816Z,258.38
2023-10-29T00:47:35.113Z,256.20
2023-10-29T00:50:04.811Z,260.45
2023-10-29T00:52:34.485Z,260.13
2023-10-29T00:55:04.118Z,252.77
2023-10-29T00:57:32.621Z,259.42
2023-10-29T01:00:01.402Z,257.77
2023-10-29T01:02:30.112Z,256.67
2023-10-29T01:04:59.518Z,260.83
2023-10-29T01:07:32.765Z,252.65
2023-10-29T01:10:01.851Z,261.38
2023-10-29T01:12:31.186Z,260.45
2023-10-29T01:15:00.319Z,255.23
2023-10-29T01:17:29.361Z,254.77
2023-10-29T01:19:58.773Z,258.15
2023-10-29T01:22:28.078Z,252.70
2023-10-29T01:24:56.381Z,248.55
2023-10-29T01:27:25.103Z,258.40
2023-10-29T01:29:53.452Z,257.05
2023-10-29T01:32:22.092Z,246.20
2023-10-29T01:34:52.270Z,255.48
2023-10-29T01:37:20.846Z,253.10
2023-10-29T01:39:49.170Z,254.55
2023-10-29T01:42:18.098Z,262.67
2023-10-29T01:44:46.892Z,257.95
2023-10-29T01:47:17.043Z,264.10
2023-10-29T01:49:45.708Z,254.57
2023-10-29T01:52:14.102Z,256.33
2023-10-29T01:54:42.549Z,255.82
2023-10-29T01:57:11.317Z,257.33
2023-10-29T01:59:39.803Z,254.60
2023-10-29T02:02:08.350Z,256.95
2023-10-29T02:04:39.357Z,255.77
2023-10-29T02:07:09.611Z,251.10
2023-10-29T02:09:40.994Z,253.20
2023-10-29T02:12:09.680Z,267.17
2023-10-29T02:14:38.663Z,271.10
2023-10-29T02:17:07.365Z,278.70
2023-10-29T02:19:35.872Z,281.15
2023-10-29T02:22:04.298Z,281.27
2023-10-29T02:24:33.493Z,263.80
2023-10-29T02:27:01.999Z,265.38
2023-10-29T02:29:30.415Z,278.02
2023-10-29T02:31:59.666Z,283.38
2023-10-29T02:34:27.979Z,265.95
2023-10-29T02:36:57.014Z,273.92
2023-10-29T02:39:25.430Z,275.52
2023-10-29T02:41:54.110Z,279.80
2023-10-29T02:44:22.536Z,286.98
2023-10-29T02:46:51.344Z,287.95
2023-10-29T02:49:20.180Z,285.85
2023-10-29T02:51:48.645Z,283.85
2023-10-29T02:54:17.356Z,282.00
2023-10-29T02:56:45.860Z,288.05
2023-10-29T02:59:14.433Z,289.90
2023-10-29T03:01:43.063Z,293.23
2023-10-29T03:04:11.697Z,288.75
2023-10-29T03:06:41.025Z,294.58
2023-10-29T03:09:10.789Z,295.90
2023-10-29T03:11:39.344Z,300.38
2023-10-29T03:14:07.745Z,298.63
2023-10-29T03:16:36.546Z,300.48
2023-10-29T03:19:05.127Z,298.17
2023-10-29T03:21:34.519Z,291.20
2023-10-29T03:24:02.916Z,287.77
2023-10-29T03:26:31.574Z,281.65
2023-10-29T03:29:00.150Z,276.83
2023-10-29T03:31:28.965Z,274.63
2023-10-29T03:33:57.397Z,261.25
2023-10-29T03:36:29.188Z,259.63
2023-10-29T03:38:57.914Z,255.13
2023-10-29T03:41:26.445Z,262.75
2023-10-29T03:43:59.104Z,253.27
2023-10-29T03:46:27.938Z,244.90
2023-10-29T03:48:57.619Z,228.00
2023-10-29T03:51:30.164Z,217.40
2023-10-29T03:56:26.934Z,211.88
2023-10-29T03:58:55.488Z,217.05
2023-10-29T04:01:26.599Z,200.75
2023-10-29T04:03:55.305Z,171.23
2023-10-29T04:06:23.754Z,164.25
2023-10-29T04:08:52.592Z,168.15
2023-10-29T04:11:21.026Z,166.52
2023-10-29T04:13:49.961Z,168.13
2023-10-29T04:16:19.680Z,173.70
2023-10-29T04:18:48.363Z,183.80
2023-10-29T04:21:16.718Z,174.23
2023-10-29T04:23:45.540Z,186.07
2023-10-29T04:26:13.940Z,187.90
2023-10-29T04:28:42.553Z,185.50
2023-10-29T04:31:11.021Z,177.00
2023-10-29T04:33:40.252Z,176.85
2023-10-29T04:36:08.736Z,176.50
2023-10-29T04:38:39.238Z,174.13
2023-10-29T04:41:07.808Z,167.43
2023-10-29T04:43:36.166Z,165.10
2023-10-29T04:46:05.844Z,158.23
2023-10-29T04:48:34.593Z,149.90
2023-10-29T04:51:03.269Z,153.88
2023-10-29T04:53:35.606Z,148.63
2023-10-29T04:56:05.503Z,146.80
2023-10-29T04:58:34.339Z,144.85
2023-10-29T05:01:03.003Z,145.43
2023-10-29T05:03:31.583Z,150.85
2023-10-29T05:06:00.333Z,147.15
2023-10-29T05:08:28.958Z,141.23
2023-10-29T05:10:57.347Z,142.32
2023-10-29T05:13:26.122Z,145.15
2023-10-29T05:16:00.067Z,144.05
2023-10-29T05:18:28.649Z,144.35
2023-10-29T05:20:57.569Z,147.43
2023-10-29T05:23:26.392Z,144.07
2023-10-29T05:25:55.086Z,143.32
2023-10-29T05:28:24.027Z,142.93
2023-10-29T05:30:52.616Z,146.32
2023-10-29T05:33:22.719Z,140.02
2023-10-29T05:35:51.108Z,143.18
2023-10-29T05:38:20.241Z,144.52
2023-10-29T05:40:49.194Z,145.40
2023-10-29T05:43:17.970Z,148.20
2023-10-29T05:45:47.316Z,144.07
2023-10-29T05:48:16.088Z,146.05
2023-10-29T05:50:44.586Z,154.00
2023-10-29T05:53:13.181Z,149.50
2023-10-29T05:55:42.583Z,150.70
2023-10-29T05:58:11.310Z,152.43
2023-10-29T06:00:39.698Z,147.70
2023-10-29T06:03:08.539Z,143.70
2023-10-29T06:05:37.084Z,143.20
2023-10-29T06:08:07.254Z,143.40
2023-10-29T06:10:36.030Z,138.98
2023-10-29T06:13:04.489Z,134.02
2023-10-29T06:15:33.288Z,132.45
2023-10-29T06:18:02.403Z,129.38
2023-10-29T06:20:30.866Z,129.50
2023-10-29T06:22:59.260Z,130.55
2023-10-29T06:25:28.996Z,129.90
2023-10-29T06:27:57.391Z,131.98
2023-10-29T06:30:26.041Z,126.20
2023-10-29T06:32:54.572Z,125.13
2023-10-29T06:35:23.261Z,126.88
2023-10-29T06:37:51.710Z,121.43
2023-10-29T06:40:20.932Z,120.30
2023-10-29T06:42:49.430Z,125.15
2023-10-29T06:45:18.724Z,120.47
2023-10-29T06:47:47.835Z,116.43
2023-10-29T06:50:16.392Z,116.38
2023-10-29T06:52:44.901Z,113.85
2023-10-29T06:55:14.795Z,115.93
2023-10-29T06:57:43.263Z,117.72
2023-10-29T07:00:12.717Z,116.07
2023-10-29T07:02:41.200Z,117.35
2023-10-29T07:05:10.410Z,110.88
2023-10-29T07:07:38.715Z,105.15
2023-10-29T07:10:07.606Z,106.88
2023-10-29T07:12:36.291Z,88.82
2023-10-29T07:15:05.249Z,82.30
2023-10-29T07:17:33.838Z,83.13
2023-10-29T07:20:02.453Z,87.72
2023-10-29T07:22:31.295Z,86.65
2023-10-29T07:25:00.231Z,83.90
2023-10-29T07:27:35.831Z,83.10
2023-10-29T07:30:05.032Z,83.05
2023-10-29T07:32:33.432Z,87.18
2023-10-29T07:35:02.344Z,91.55
2023-10-29T07:37:30.940Z,91.93
2023-10-29T07:39:59.261Z,95.43
2023-10-29T07:42:28.390Z,95.10
2023-10-29T07:44:56.808Z,89.93
2023-10-29T07:47:25.660Z,89.80
2023-10-29T07:49:54.133Z,85.90
2023-10-29T07:52:22.773Z,89.10
2023-10-29T07:54:51.380Z,91.93
2023-10-29T07:57:19.933Z,91.00
2023-10-29T07:59:48.324Z,93.75
2023-10-29T08:02:16.889Z,93.03
2023-10-29T08:04:45.436Z,91.78
2023-10-29T08:07:13.806Z,88.85
2023-10-29T08:09:43.320Z,90.97
2023-10-29T08:12:12.848Z,91.32
2023-10-29T08:14:41.249Z,88.78
2023-10-29T08:17:09.788Z,91.80
2023-10-29T08:19:38.641Z,93.57
2023-10-29T08:22:07.085Z,94.65
2023-10-29T08:24:35.749Z,99.93
2023-10-29T08:27:04.258Z,92.68
2023-10-29T08:29:33.587Z,90.63
2023-10-29T08:32:03.121Z,93.93
2023-10-29T08:34:31.606Z,97.05
2023-10-29T08:37:00.050Z,94.45
2023-10-29T08:39:38.782Z,93.30
2023-10-29T08:42:07.745Z,92.25
2023-10-29T08:44:36.701Z,91.20
2023-10-29T08:47:05.445Z,88.78
2023-10-29T08:49:34.324Z,92.60
2023-10-29T08:52:02.798Z,91.38
2023-10-29T08:54:31.424Z,91.97
2023-10-29T08:56:59.878Z,88.07
2023-10-29T08:59:31.287Z,89.90
2023-10-29T09:01:59.889Z,87.95
2023-10-29T09:04:28.275Z,85.47
2023-10-29T09:06:57.215Z,85.93
2023-10-29T09:09:25.769Z,88.30
2023-10-29T09:11:55.476Z,87.68
2023-10-29T09:14:23.836Z,86.43
2023-10-29T09:16:52.977Z,89.00
2023-10-29T09:19:22.167Z,84.43
2023-10-29T09:21:50.715Z,84.10
2023-10-29T09:24:19.699Z,84.32
2023-10-29T09:26:48.041Z,87.28
2023-10-29T09:29:16.460Z,85.13
2023-10-29T09:31:45.175Z,87.68
2023-10-29T09:34:13.854Z,92.00
2023-10-29T09:36:45.718Z,88.68
2023-10-29T09:39:14.578Z,82.93
2023-10-29T09:41:45.588Z,81.10
2023-10-29T09:44:21.188Z,85.20
2023-10-29T09:46:54.396Z,83.90
2023-10-29T09:49:23.090Z,77.35
2023-10-29T09:51:51.602Z,74.88
2023-10-29T09:54:21.160Z,75.50
2023-10-29T09:56:49.910Z,72.00
2023-10-29T09:59:18.392Z,73.07
2023-10-29T10:01:58.013Z,74.25
2023-10-29T10:04:27.996Z,75.97
2023-10-29T10:06:59.161Z,79.82
2023-10-29T10:09:28.118Z,81.47
2023-10-29T10:12:15.693Z,79.93
2023-10-29T10:14:47.846Z,82.85
2023-10-29T10:17:16.646Z,77.28
2023-10-29T10:19:45.061Z,77.18
2023-10-29T10:22:14.289Z,76.57
2023-10-29T10:24:47.703Z,73.88
2023-10-29T10:27:17.795Z,73.85
2023-10-29T10:29:47.958Z,74.82
2023-10-29T10:32:17.892Z,71.78
2023-10-29T10:34:53.075Z,67.90
2023-10-29T10:37:21.775Z,66.10
2023-10-29T10:39:50.472Z,67.43
2023-10-29T10:42:26.915Z,66.05
2023-10-29T10:44:57.917Z,68.22
2023-10-29T10:47:28.931Z,70.35
2023-10-29T10:49:57.660Z,70.25
2023-10-29T10:52:26.943Z,66.18
2023-10-29T10:54:55.900Z,63.20
2023-10-29T10:57:24.223Z,63.92
2023-10-29T10:59:53.703Z,64.82
2023-10-29T11:02:22.707Z,64.25
2023-10-29T11:04:52.068Z,65.28
2023-10-29T11:07:23.306Z,64.80
2023-10-29T11:09:52.249Z,66.35
2023-10-29T11:12:22.165Z,67.30
2023-10-29T11:15:09.387Z,66.38
2023-10-29T11:17:56.615Z,64.85
2023-10-29T11:20:51.479Z,61.70
2023-10-29T11:23:26.448Z,61.40
2023-10-29T11:26:13.799Z,63.63
2023-10-29T11:28:46.151Z,62.33
2023-10-29T11:31:18.716Z,59.92
2023-10-29T11:33:48.382Z,65.20
2023-10-29T11:36:35.905Z,61.63
2023-10-29T11:39:16.974Z,62.80
2023-10-29T11:41:46.390Z,64.13
2023-10-29T11:44:31.228Z,61.53
2023-10-29T11:47:05.498Z,62.58
2023-10-29T11:49:36.827Z,61.40
2023-10-29T11:52:05.967Z,61.38
2023-10-29T11:54:34.632Z,61.95
2023-10-29T11:57:04.174Z,67.80
2023-10-29T11:59:33.685Z,64.15
2023-10-29T12:02:02.673Z,65.97
2023-10-29T12:04:34.852Z,67.50
2023-10-29T12:07:03.759Z,62.95
2023-10-29T12:09:35.251Z,67.50
2023-10-29T12:12:10.817Z,64.97
2023-10-29T12:14:41.423Z,65.00
2023-10-29T12:17:10.690Z,67.55
2023-10-29T12:19:40.108Z,67.88
2023-10-29T12:22:18.946Z,69.60
2023-10-29T12:24:49.173Z,68.45
2023-10-29T12:27:18.685Z,69.32
2023-10-29T12:29:47.408Z,70.97
2023-10-29T12:32:26.830Z,75.63
2023-10-29T12:34:55.735Z,72.43
2023-10-29T12:37:24.970Z,74.82
2023-10-29T12:40:02.082Z,76.97
2023-10-29T12:42:49.271Z,74.93
2023-10-29T12:45:26.872Z,73.00
2023-10-29T12:48:15.347Z,73.90
2023-10-29T12:50:54.343Z,77.45
2023-10-29T12:53:26.653Z,77.80
2023-10-29T12:55:56.000Z,80.45
2023-10-29T12:58:24.570Z,80.82
2023-10-29T13:00:56.206Z,85.35
2023-10-29T13:03:27.379Z,81.40
2023-10-29T13:05:59.016Z,83.55
2023-10-29T13:08:27.903Z,84.07
2023-10-29T13:10:56.354Z,85.90
2023-10-29T13:13:25.638Z,89.53
2023-10-29T13:15:54.467Z,86.47
2023-10-29T13:18:23.091Z,93.55
2023-10-29T13:20:51.621Z,91.93
2023-10-29T13:23:20.203Z,94.05
2023-10-29T13:25:56.072Z,102.25
2023-10-29T13:28:26.213Z,98.80
2023-10-29T13:30:56.960Z,99.15
2023-10-29T13:33:26.641Z,103.28
2023-10-29T13:35:55.114Z,102.97
2023-10-29T13:38:25.096Z,103.70
2023-10-29T13:40:54.295Z,109.20
2023-10-29T13:43:22.844Z,108.60
2023-10-29T13:46:01.902Z,106.75
2023-10-29T13:48:30.971Z,107.70
2023-10-29T13:51:04.551Z,105.80
2023-10-29T13:53:33.681Z,109.32
2023-10-29T13:56:11.962Z,110.68
2023-10-29T13:58:41.086Z,108.13
2023-10-29T14:01:25.688Z,109.25
2023-10-29T14:03:54.438Z,111.07
2023-10-29T14:06:22.841Z,111.05
2023-10-29T14:08:51.942Z,111.60
2023-10-29T14:11:21.787Z,118.90
2023-10-29T14:13:53.468Z,114.93
2023-10-29T14:16:22.073Z,116.28
2023-10-29T14:18:50.517Z,119.50
2023-10-29T14:21:19.756Z,115.55
2023-10-29T14:23:48.118Z,121.95
2023-10-29T14:26:18.550Z,117.97
2023-10-29T14:28:46.978Z,121.03
2023-10-29T14:31:15.675Z,123.22
2023-10-29T14:33:44.276Z,128.35
2023-10-29T14:36:12.936Z,134.55
2023-10-29T14:38:41.287Z,135.48
2023-10-29T14:41:10.048Z,139.43
2023-10-29T14:43:39.563Z,137.27
2023-10-29T14:46:08.021Z,136.77
2023-10-29T14:48:36.659Z,136.23
2023-10-29T14:51:06.488Z,136.52
2023-10-29T14:53:35.076Z,135.43
2023-10-29T14:56:04.143Z,149.77
2023-10-29T14:58:32.528Z,148.57
2023-10-29T15:01:05.210Z,147.90
2023-10-29T15:03:34.384Z,152.30
2023-10-29T15:06:02.886Z,153.23
2023-10-29T15:08:31.592Z,155.30
2023-10-29T15:11:00.392Z,147.07
2023-10-29T15:13:28.949Z,157.52
2023-10-29T15:15:57.754Z,154.27
2023-10-29T15:18:26.973Z,155.45
2023-10-29T15:21:01.144Z,154.35
2023-10-29T15:23:30.486Z,154.13
2023-10-29T15:25:58.826Z,155.77
2023-10-29T15:28:27.521Z,152.20
2023-10-29T15:30:56.028Z,154.52
2023-10-29T15:33:24.861Z,150.73
2023-10-29T15:35:53.290Z,163.65
2023-10-29T15:38:22.003Z,163.60
2023-10-29T15:40:50.459Z,164.60
2023-10-29T15:43:18.950Z,162.88
2023-10-29T15:45:47.493Z,161.05
2023-10-29T15:48:16.396Z,160.93
2023-10-29T15:50:54.685Z,165.98
2023-10-29T15:53:23.278Z,164.57
2023-10-29T15:55:51.814Z,169.15
2023-10-29T15:58:21.341Z,178.45
2023-10-29T16:00:50.223Z,182.80
2023-10-29T16:03:18.831Z,185.73
2023-10-29T16:05:47.490Z,190.48
2023-10-29T16:08:17.079Z,182.75
2023-10-29T16:10:46.009Z,191.68
2023-10-29T16:13:14.466Z,185.85
2023-10-29T16:15:42.941Z,177.52
2023-10-29T16:18:11.729Z,178.98
2023-10-29T16:20:40.149Z,178.05
2023-10-29T16:23:08.627Z,183.63
2023-10-29T16:25:37.421Z,189.52
2023-10-29T16:28:05.846Z,189.70
2023-10-29T16:30:34.426Z,190.95
2023-10-29T16:33:06.133Z,188.43
2023-10-29T16:35:34.895Z,188.65
2023-10-29T16:38:03.341Z,198.52
2023-10-29T16:40:32.422Z,198.73
2023-10-29T16:43:00.994Z,186.23
2023-10-29T16:45:29.651Z,189.82
2023-10-29T16:47:59.630Z,187.90
2023-10-29T16:50:28.168Z,189.85
2023-10-29T16:52:57.154Z,200.05
2023-10-29T16:55:25.573Z,203.75
2023-10-29T16:57:54.268Z,203.23
2023-10-29T17:00:24.199Z,204.00
2023-10-29T17:02:53.043Z,207.35
2023-10-29T17:05:21.627Z,199.57
2023-10-29T17:07:50.938Z,202.20
2023-10-29T17:10:19.636Z,202.82
2023-10-29T17:12:48.122Z,205.77
2023-10-29T17:15:17.062Z,205.95
2023-10-29T17:17:45.556Z,205.00
2023-10-29T17:20:14.281Z,202.23
2023-10-29T17:22:42.715Z,202.13
2023-10-29T17:25:11.370Z,198.48
2023-10-29T17:27:39.766Z,197.88
2023-10-29T17:30:09.049Z,201.52
2023-10-29T17:32:37.469Z,202.68
2023-10-29T17:35:06.919Z,203.13
2023-10-29T17:37:35.651Z,203.52
2023-10-29T17:40:05.510Z,201.05
2023-10-29T17:42:35.835Z,199.15
2023-10-29T17:45:04.383Z,198.45
2023-10-29T17:47:33.384Z,195.35
2023-10-29T17:50:02.628Z,196.32
2023-10-29T17:52:31.005Z,190.43
2023-10-29T17:54:59.638Z,196.57
2023-10-29T17:57:28.243Z,190.98
2023-10-29T17:59:56.679Z,192.27
2023-10-29T18:02:25.249Z,185.00
2023-10-29T18:04:53.725Z,189.93
2023-10-29T18:07:22.345Z,191.15
2023-10-29T18:09:52.504Z,182.07
2023-10-29T18:12:21.112Z,190.88
2023-10-29T18:14:52.772Z,185.68
2023-10-29T18:17:21.672Z,184.25
2023-10-29T18:19:50.043Z,185.57
2023-10-29T18:22:18.621Z,188.30
2023-10-29T18:24:47.272Z,193.00
2023-10-29T18:27:16.347Z,187.32
2023-10-29T18:29:45.879Z,191.82
2023-10-29T18:32:14.322Z,187.73
2023-10-29T18:34:46.093Z,191.13
2023-10-29T18:37:14.967Z,188.20
2023-10-29T18:39:46.883Z,192.88
2023-10-29T18:42:15.920Z,193.60
2023-10-29T18:44:44.346Z,196.93
2023-10-29T18:47:13.199Z,196.45
2023-10-29T18:49:41.616Z,193.70
2023-10-29T18:52:10.969Z,195.20
2023-10-29T18:54:40.906Z,198.85
2023-10-29T18:57:13.427Z,193.48
2023-10-29T18:59:42.437Z,189.30
2023-10-29T19:02:10.890Z,194.27
2023-10-29T19:04:39.901Z,190.45
2023-10-29T19:07:08.736Z,190.73
2023-10-29T19:09:37.244Z,190.82
2023-10-29T19:12:09.123Z,189.02
2023-10-29T19:14:39.717Z,185.75
2023-10-29T19:17:10.529Z,185.32
2023-10-29T19:19:42.950Z,187.82
2023-10-29T19:22:13.534Z,182.43
2023-10-29T19:24:42.691Z,182.60
2023-10-29T19:27:12.665Z,184.73
2023-10-29T19:29:41.577Z,185.15
2023-10-29T19:32:10.464Z,183.52
2023-10-29T19:34:39.550Z,184.18
2023-10-29T19:37:08.653Z,189.20
2023-10-29T19:39:38.076Z,191.07
2023-10-29T19:42:07.683Z,188.20
2023-10-29T19:44:37.222Z,192.82
2023-10-29T19:47:06.663Z,189.60
2023-10-29T19:49:36.397Z,192.30
2023-10-29T19:52:09.395Z,188.02
2023-10-29T19:54:38.909Z,189.23
2023-10-29T19:57:08.410Z,187.10
2023-10-29T19:59:38.462Z,183.82
2023-10-29T20:02:08.698Z,189.70
2023-10-29T20:04:38.556Z,191.10
2023-10-29T20:07:07.943Z,194.68
2023-10-29T20:09:38.376Z,189.05
2023-10-29T20:12:09.497Z,188.90
2023-10-29T20:14:39.080Z,190.40
2023-10-29T20:17:08.647Z,195.70
2023-10-29T20:19:41.152Z,192.10
2023-10-29T20:24:39.445Z,183.73
2023-10-29T20:27:10.073Z,188.32
2023-10-29T20:29:39.801Z,191.98
2023-10-29T20:32:09.658Z,193.43
2023-10-29T20:34:39.310Z,199.00
2023-10-29T20:37:12.765Z,189.32
2023-10-29T20:39:42.291Z,192.45
2023-10-29T20:42:11.501Z,194.32
2023-10-29T20:44:42.048Z,198.85
2023-10-29T20:47:12.314Z,205.90
2023-10-29T20:49:42.685Z,210.35
2023-10-29T20:52:16.402Z,204.48
2023-10-29T20:54:46.636Z,197.93
2023-10-29T20:57:16.117Z,197.45
2023-10-29T20:59:45.309Z,203.82
2023-10-29T21:02:15.122Z,207.77
2023-10-29T21:04:44.728Z,209.85
2023-10-29T21:07:15.706Z,203.93
2023-10-29T21:09:46.756Z,210.77
2023-10-29T21:12:16.774Z,205.55
2023-10-29T21:14:46.085Z,201.15
2023-10-29T21:17:15.587Z,194.43
2023-10-29T21:19:45.061Z,195.35
2023-10-29T21:22:14.555Z,203.25
2023-10-29T21:24:43.742Z,200.68
2023-10-29T21:27:13.768Z,203.77
2023-10-29T21:29:43.242Z,200.10
2023-10-29T21:32:12.985Z,201.05
2023-10-29T21:34:42.564Z,195.93
2023-10-29T21:37:11.081Z,192.23
2023-10-29T21:39:40.031Z,193.48
2023-10-29T21:42:08.533Z,193.02
2023-10-29T21:44:46.668Z,191.43
2023-10-29T21:47:15.861Z,189.38
2023-10-29T21:49:47.559Z,184.85
2023-10-29T21:52:17.465Z,187.85
2023-10-29T21:54:51.813Z,185.30
2023-10-29T21:57:20.963Z,191.55
2023-10-29T21:59:50.128Z,185.15
2023-10-29T22:02:18.948Z,185.02
2023-10-29T22:04:47.398Z,185.20
2023-10-29T22:07:15.805Z,190.18
2023-10-29T22:09:45.187Z,187.75
2023-10-29T22:12:14.515Z,185.95
2023-10-29T22:14:43.161Z,191.63
2023-10-29T22:17:16.010Z,185.02
2023-10-29T22:19:44.672Z,182.88
2023-10-29T22:22:18.652Z,182.93
2023-10-29T22:24:47.569Z,184.60
2023-10-29T22:27:16.127Z,186.27
2023-10-29T22:29:44.839Z,186.98
2023-10-29T22:32:14.105Z,188.80
2023-10-29T22:34:42.803Z,183.75
2023-10-29T22:37:11.191Z,182.07
2023-10-29T22:39:39.867Z,182.52
2023-10-29T22:42:11.365Z,191.52
2023-10-29T22:44:39.922Z,185.87
2023-10-29T22:47:08.680Z,183.02
2023-10-29T22:49:37.642Z,182.73
2023-10-29T22:52:06.115Z,188.00
2023-10-29T22:54:34.985Z,186.82
2023-10-29T22:57:03.641Z,183.60
2023-10-29T22:59:32.476Z,177.60
2023-10-29T23:02:00.945Z,184.75
2023-10-29T23:04:29.771Z,189.52
2023-10-29T23:06:58.159Z,183.57
2023-10-29T23:09:27.229Z,184.05
2023-10-29T23:11:55.596Z,187.77
2023-10-29T23:14:24.166Z,185.52
2023-10-29T23:16:52.745Z,186.73
2023-10-29T23:19:21.326Z,183.50
2023-10-29T23:21:49.885Z,185.88
2023-10-29T23:24:18.467Z,186.02
2023-10-29T23:26:46.984Z,194.73
2023-10-29T23:29:15.457Z,197.52
2023-10-29T23:31:44.104Z,197.02
2023-10-29T23:34:12.873Z,199.50
2023-10-29T23:36:41.438Z,195.23
2023-10-29T23:39:10.281Z,196.68
2023-10-29T23:41:39.082Z,192.65
2023-10-29T23:44:07.702Z,194.55
2023-10-29T23:46:36.071Z,192.35
2023-10-29T23:49:04.836Z,191.68
2023-10-29T23:51:33.215Z,195.70
2023-10-29T23:54:01.927Z,190.88
2023-10-29T23:56:30.366Z,187.07
2023-10-29T23:58:58.929Z,190.23
